sensor_id;sensor_type;location;lat;lon;timestamp;temperature;humidity
43920;DHT22;29578;51.946;5.874;2022-08-11T00:02:26;22.40;49.60
43920;DHT22;29578;51.946;5.874;2022-08-11T00:04:54;22.40;49.70
43920;DHT22;29578;51.946;5.874;2022-08-11T00:07:20;22.30;49.70
43920;DHT22;29578;51.946;5.874;2022-08-11T00:09:47;22.40;49.90
43920;DHT22;29578;51.946;5.874;2022-08-11T00:12:15;22.30;49.90
43920;DHT22;29578;51.946;5.874;2022-08-11T00:14:43;22.30;50.00
43920;DHT22;29578;51.946;5.874;2022-08-11T00:17:12;22.30;50.10
43920;DHT22;29578;51.946;5.874;2022-08-11T00:19:44;22.10;50.10
43920;DHT22;29578;51.946;5.874;2022-08-11T00:22:11;22.10;50.20
43920;DHT22;29578;51.946;5.874;2022-08-11T00:24:44;22.10;50.30
43920;DHT22;29578;51.946;5.874;2022-08-11T00:27:10;22.10;50.40
43920;DHT22;29578;51.946;5.874;2022-08-11T00:29:35;22.00;50.40
43920;DHT22;29578;51.946;5.874;2022-08-11T00:32:03;21.90;50.40
43920;DHT22;29578;51.946;5.874;2022-08-11T00:34:33;21.90;50.60
43920;DHT22;29578;51.946;5.874;2022-08-11T00:37:05;21.90;50.70
43920;DHT22;29578;51.946;5.874;2022-08-11T00:39:41;21.90;50.70
43920;DHT22;29578;51.946;5.874;2022-08-11T00:45:34;21.80;50.80
43920;DHT22;29578;51.946;5.874;2022-08-11T00:53:39;21.70;51.10
43920;DHT22;29578;51.946;5.874;2022-08-11T00:59:39;21.60;51.20
43920;DHT22;29578;51.946;5.874;2022-08-11T01:02:37;21.50;51.20
43920;DHT22;29578;51.946;5.874;2022-08-11T01:05:22;21.60;51.30
43920;DHT22;29578;51.946;5.874;2022-08-11T01:08:12;21.50;51.40
43920;DHT22;29578;51.946;5.874;2022-08-11T01:20:02;21.40;51.60
43920;DHT22;29578;51.946;5.874;2022-08-11T01:23:03;21.40;51.70
43920;DHT22;29578;51.946;5.874;2022-08-11T01:25:41;21.30;51.70
43920;DHT22;29578;51.946;5.874;2022-08-11T01:34:41;21.30;52.00
43920;DHT22;29578;51.946;5.874;2022-08-11T01:40:25;21.20;52.00
43920;DHT22;29578;51.946;5.874;2022-08-11T01:46:20;21.20;52.20
43920;DHT22;29578;51.946;5.874;2022-08-11T01:49:09;21.20;52.20
43920;DHT22;29578;51.946;5.874;2022-08-11T01:54:45;21.20;52.40
43920;DHT22;29578;51.946;5.874;2022-08-11T01:57:33;21.00;52.30
43920;DHT22;29578;51.946;5.874;2022-08-11T02:00:07;21.10;52.40
43920;DHT22;29578;51.946;5.874;2022-08-11T02:05:37;21.10;52.50
43920;DHT22;29578;51.946;5.874;2022-08-11T02:08:35;21.10;52.60
43920;DHT22;29578;51.946;5.874;2022-08-11T02:11:27;21.00;52.70
43920;DHT22;29578;51.946;5.874;2022-08-11T02:14:02;21.00;52.70
43920;DHT22;29578;51.946;5.874;2022-08-11T02:16:47;21.00;52.80
43920;DHT22;29578;51.946;5.874;2022-08-11T02:22:34;20.90;52.90
43920;DHT22;29578;51.946;5.874;2022-08-11T02:25:44;20.90;52.90
43920;DHT22;29578;51.946;5.874;2022-08-11T02:28:23;20.90;53.00
43920;DHT22;29578;51.946;5.874;2022-08-11T02:31:17;20.90;53.10
43920;DHT22;29578;51.946;5.874;2022-08-11T02:34:08;20.90;53.10
43920;DHT22;29578;51.946;5.874;2022-08-11T02:36:40;20.80;53.20
43920;DHT22;29578;51.946;5.874;2022-08-11T02:39:13;20.80;53.20
43920;DHT22;29578;51.946;5.874;2022-08-11T02:45:18;20.70;53.30
43920;DHT22;29578;51.946;5.874;2022-08-11T02:48:24;20.70;53.50
43920;DHT22;29578;51.946;5.874;2022-08-11T02:51:28;20.60;53.50
43920;DHT22;29578;51.946;5.874;2022-08-11T02:54:16;20.60;53.60
43920;DHT22;29578;51.946;5.874;2022-08-11T02:56:56;20.60;53.70
43920;DHT22;29578;51.946;5.874;2022-08-11T03:00:10;20.60;53.70
43920;DHT22;29578;51.946;5.874;2022-08-11T03:02:47;20.40;53.80
43920;DHT22;29578;51.946;5.874;2022-08-11T03:05:24;20.50;53.90
43920;DHT22;29578;51.946;5.874;2022-08-11T03:08:06;20.50;54.10
43920;DHT22;29578;51.946;5.874;2022-08-11T03:10:43;20.50;54.10
43920;DHT22;29578;51.946;5.874;2022-08-11T03:13:33;20.40;54.20
43920;DHT22;29578;51.946;5.874;2022-08-11T03:16:26;20.30;54.20
43920;DHT22;29578;51.946;5.874;2022-08-11T03:22:33;20.20;54.50
43920;DHT22;29578;51.946;5.874;2022-08-11T03:25:09;20.20;54.60
43920;DHT22;29578;51.946;5.874;2022-08-11T03:27:48;20.20;54.80
43920;DHT22;29578;51.946;5.874;2022-08-11T03:30:18;20.20;54.80
43920;DHT22;29578;51.946;5.874;2022-08-11T03:36:15;20.10;54.90
43920;DHT22;29578;51.946;5.874;2022-08-11T03:39:06;20.10;54.90
43920;DHT22;29578;51.946;5.874;2022-08-11T03:41:48;20.10;55.60
43920;DHT22;29578;51.946;5.874;2022-08-11T04:02:26;19.90;55.30
43920;DHT22;29578;51.946;5.874;2022-08-11T04:05:37;19.90;55.20
43920;DHT22;29578;51.946;5.874;2022-08-11T04:08:19;19.90;55.30
43920;DHT22;29578;51.946;5.874;2022-08-11T04:23:57;19.80;55.50
43920;DHT22;29578;51.946;5.874;2022-08-11T04:29:24;19.80;55.60
43920;DHT22;29578;51.946;5.874;2022-08-11T04:38:04;19.70;55.80
43920;DHT22;29578;51.946;5.874;2022-08-11T04:49:51;19.70;56.00
43920;DHT22;29578;51.946;5.874;2022-08-11T04:53:04;19.70;56.00
43920;DHT22;29578;51.946;5.874;2022-08-11T04:56:16;19.70;56.00
43920;DHT22;29578;51.946;5.874;2022-08-11T04:59:17;19.70;56.00
43920;DHT22;29578;51.946;5.874;2022-08-11T05:05:20;19.80;56.00
43920;DHT22;29578;51.946;5.874;2022-08-11T05:13:50;19.70;56.10
43920;DHT22;29578;51.946;5.874;2022-08-11T05:16:50;19.80;56.10
43920;DHT22;29578;51.946;5.874;2022-08-11T05:19:37;19.70;56.10
43920;DHT22;29578;51.946;5.874;2022-08-11T05:22:18;19.80;56.10
43920;DHT22;29578;51.946;5.874;2022-08-11T05:25:17;19.80;56.10
43920;DHT22;29578;51.946;5.874;2022-08-11T05:28:10;19.80;56.10
43920;DHT22;29578;51.946;5.874;2022-08-11T05:30:48;19.80;56.00
43920;DHT22;29578;51.946;5.874;2022-08-11T05:33:57;19.90;56.20
43920;DHT22;29578;51.946;5.874;2022-08-11T05:37:03;19.90;56.10
43920;DHT22;29578;51.946;5.874;2022-08-11T05:39:35;19.90;56.10
43920;DHT22;29578;51.946;5.874;2022-08-11T05:42:21;19.90;56.10
43920;DHT22;29578;51.946;5.874;2022-08-11T05:45:03;20.00;56.10
43920;DHT22;29578;51.946;5.874;2022-08-11T05:47:49;20.00;56.00
43920;DHT22;29578;51.946;5.874;2022-08-11T05:50:29;20.00;55.90
43920;DHT22;29578;51.946;5.874;2022-08-11T05:53:10;20.10;56.00
43920;DHT22;29578;51.946;5.874;2022-08-11T05:55:50;20.20;56.00
43920;DHT22;29578;51.946;5.874;2022-08-11T05:58:38;20.10;55.90
43920;DHT22;29578;51.946;5.874;2022-08-11T06:01:05;20.10;56.00
43920;DHT22;29578;51.946;5.874;2022-08-11T06:03:33;20.10;56.00
43920;DHT22;29578;51.946;5.874;2022-08-11T06:06:20;20.20;56.00
43920;DHT22;29578;51.946;5.874;2022-08-11T06:08:47;20.20;56.00
43920;DHT22;29578;51.946;5.874;2022-08-11T06:11:15;20.20;56.00
43920;DHT22;29578;51.946;5.874;2022-08-11T06:13:44;20.30;56.00
43920;DHT22;29578;51.946;5.874;2022-08-11T06:16:12;20.30;56.00
43920;DHT22;29578;51.946;5.874;2022-08-11T06:18:45;20.30;56.00
43920;DHT22;29578;51.946;5.874;2022-08-11T06:21:12;20.30;56.00
43920;DHT22;29578;51.946;5.874;2022-08-11T06:23:38;20.30;56.00
43920;DHT22;29578;51.946;5.874;2022-08-11T06:26:11;20.40;56.00
43920;DHT22;29578;51.946;5.874;2022-08-11T06:28:40;20.50;56.10
43920;DHT22;29578;51.946;5.874;2022-08-11T06:31:17;20.50;56.00
43920;DHT22;29578;51.946;5.874;2022-08-11T06:33:54;20.50;56.00
43920;DHT22;29578;51.946;5.874;2022-08-11T06:36:44;20.50;56.00
43920;DHT22;29578;51.946;5.874;2022-08-11T06:39:24;20.50;56.00
43920;DHT22;29578;51.946;5.874;2022-08-11T06:42:02;20.50;56.00
43920;DHT22;29578;51.946;5.874;2022-08-11T06:44:38;20.60;56.10
43920;DHT22;29578;51.946;5.874;2022-08-11T06:47:14;20.60;56.00
43920;DHT22;29578;51.946;5.874;2022-08-11T06:49:44;20.70;56.10
43920;DHT22;29578;51.946;5.874;2022-08-11T06:52:30;20.60;56.00
43920;DHT22;29578;51.946;5.874;2022-08-11T06:55:00;20.70;56.10
43920;DHT22;29578;51.946;5.874;2022-08-11T06:57:33;20.70;56.10
43920;DHT22;29578;51.946;5.874;2022-08-11T07:00:17;20.70;56.00
43920;DHT22;29578;51.946;5.874;2022-08-11T07:03:15;20.80;56.00
43920;DHT22;29578;51.946;5.874;2022-08-11T07:05:53;20.90;55.90
43920;DHT22;29578;51.946;5.874;2022-08-11T07:14:52;21.00;55.60
43920;DHT22;29578;51.946;5.874;2022-08-11T07:17:44;21.10;55.60
43920;DHT22;29578;51.946;5.874;2022-08-11T07:20:14;21.10;55.50
43920;DHT22;29578;51.946;5.874;2022-08-11T07:23:01;21.10;55.40
43920;DHT22;29578;51.946;5.874;2022-08-11T07:25:41;21.30;55.40
43920;DHT22;29578;51.946;5.874;2022-08-11T07:28:24;21.30;55.30
43920;DHT22;29578;51.946;5.874;2022-08-11T07:31:12;21.40;55.10
43920;DHT22;29578;51.946;5.874;2022-08-11T07:33:44;21.50;55.00
43920;DHT22;29578;51.946;5.874;2022-08-11T07:36:11;21.60;54.90
43920;DHT22;29578;51.946;5.874;2022-08-11T07:38:40;21.70;54.90
43920;DHT22;29578;51.946;5.874;2022-08-11T07:41:10;21.70;54.70
43920;DHT22;29578;51.946;5.874;2022-08-11T07:43:37;21.90;54.60
43920;DHT22;29578;51.946;5.874;2022-08-11T07:46:05;22.00;54.50
43920;DHT22;29578;51.946;5.874;2022-08-11T07:48:51;22.10;54.30
43920;DHT22;29578;51.946;5.874;2022-08-11T07:51:30;22.20;54.20
43920;DHT22;29578;51.946;5.874;2022-08-11T07:54:11;22.30;54.10
43920;DHT22;29578;51.946;5.874;2022-08-11T07:56:37;22.50;54.50
43920;DHT22;29578;51.946;5.874;2022-08-11T07:59:04;22.60;53.70
43920;DHT22;29578;51.946;5.874;2022-08-11T08:01:41;22.80;53.50
43920;DHT22;29578;51.946;5.874;2022-08-11T08:04:21;23.00;53.30
43920;DHT22;29578;51.946;5.874;2022-08-11T08:07:02;23.20;53.10
43920;DHT22;29578;51.946;5.874;2022-08-11T08:09:42;23.40;52.80
43920;DHT22;29578;51.946;5.874;2022-08-11T08:12:23;23.70;52.50
43920;DHT22;29578;51.946;5.874;2022-08-11T08:15:06;24.00;52.20
43920;DHT22;29578;51.946;5.874;2022-08-11T08:17:51;24.20;51.90
43920;DHT22;29578;51.946;5.874;2022-08-11T08:20:29;24.40;51.70
43920;DHT22;29578;51.946;5.874;2022-08-11T08:22:58;24.70;51.50
43920;DHT22;29578;51.946;5.874;2022-08-11T08:25:28;24.90;51.40
43920;DHT22;29578;51.946;5.874;2022-08-11T08:27:56;25.10;51.30
43920;DHT22;29578;51.946;5.874;2022-08-11T08:30:24;25.30;51.10
43920;DHT22;29578;51.946;5.874;2022-08-11T08:33:04;25.50;51.00
43920;DHT22;29578;51.946;5.874;2022-08-11T08:35:30;25.70;50.90
43920;DHT22;29578;51.946;5.874;2022-08-11T08:37:57;25.90;50.90
43920;DHT22;29578;51.946;5.874;2022-08-11T08:40:25;26.10;50.90
43920;DHT22;29578;51.946;5.874;2022-08-11T08:42:55;26.20;50.70
43920;DHT22;29578;51.946;5.874;2022-08-11T08:45:21;26.40;50.60
43920;DHT22;29578;51.946;5.874;2022-08-11T08:47:57;26.60;50.50
43920;DHT22;29578;51.946;5.874;2022-08-11T08:50:26;26.80;50.30
43920;DHT22;29578;51.946;5.874;2022-08-11T08:53:13;26.90;50.20
43920;DHT22;29578;51.946;5.874;2022-08-11T08:55:41;27.10;50.20
43920;DHT22;29578;51.946;5.874;2022-08-11T08:58:08;27.30;50.20
43920;DHT22;29578;51.946;5.874;2022-08-11T09:00:44;27.40;50.10
43920;DHT22;29578;51.946;5.874;2022-08-11T09:03:10;27.50;49.90
43920;DHT22;29578;51.946;5.874;2022-08-11T09:05:37;27.60;49.90
43920;DHT22;29578;51.946;5.874;2022-08-11T09:08:03;27.80;50.00
43920;DHT22;29578;51.946;5.874;2022-08-11T09:10:30;27.90;49.80
43920;DHT22;29578;51.946;5.874;2022-08-11T09:12:58;28.00;49.70
43920;DHT22;29578;51.946;5.874;2022-08-11T09:15:24;28.10;49.50
43920;DHT22;29578;51.946;5.874;2022-08-11T09:17:53;28.30;49.40
43920;DHT22;29578;51.946;5.874;2022-08-11T09:20:26;28.50;49.30
43920;DHT22;29578;51.946;5.874;2022-08-11T09:22:56;28.60;49.10
43920;DHT22;29578;51.946;5.874;2022-08-11T09:25:37;28.70;49.10
43920;DHT22;29578;51.946;5.874;2022-08-11T09:28:20;28.80;49.00
43920;DHT22;29578;51.946;5.874;2022-08-11T09:30:49;28.90;48.80
43920;DHT22;29578;51.946;5.874;2022-08-11T09:33:20;29.00;48.70
43920;DHT22;29578;51.946;5.874;2022-08-11T09:35:48;29.10;48.70
43920;DHT22;29578;51.946;5.874;2022-08-11T09:38:16;29.10;48.60
43920;DHT22;29578;51.946;5.874;2022-08-11T09:41:02;29.30;48.40
43920;DHT22;29578;51.946;5.874;2022-08-11T09:43:30;29.30;48.40
43920;DHT22;29578;51.946;5.874;2022-08-11T09:46:09;29.40;48.30
43920;DHT22;29578;51.946;5.874;2022-08-11T09:48:39;29.50;48.00
43920;DHT22;29578;51.946;5.874;2022-08-11T09:51:07;29.70;47.90
43920;DHT22;29578;51.946;5.874;2022-08-11T09:53:38;29.70;47.80
43920;DHT22;29578;51.946;5.874;2022-08-11T09:56:11;29.70;47.80
43920;DHT22;29578;51.946;5.874;2022-08-11T09:58:50;29.70;47.70
43920;DHT22;29578;51.946;5.874;2022-08-11T10:01:20;29.90;47.60
43920;DHT22;29578;51.946;5.874;2022-08-11T10:04:00;29.90;47.40
43920;DHT22;29578;51.946;5.874;2022-08-11T10:06:28;30.10;47.30
43920;DHT22;29578;51.946;5.874;2022-08-11T10:09:11;30.10;47.30
43920;DHT22;29578;51.946;5.874;2022-08-11T10:11:42;30.20;47.20
43920;DHT22;29578;51.946;5.874;2022-08-11T10:14:08;30.20;47.00
43920;DHT22;29578;51.946;5.874;2022-08-11T10:16:53;30.40;46.90
43920;DHT22;29578;51.946;5.874;2022-08-11T10:19:20;30.50;46.70
43920;DHT22;29578;51.946;5.874;2022-08-11T10:21:50;30.60;46.50
43920;DHT22;29578;51.946;5.874;2022-08-11T10:24:36;30.60;46.20
43920;DHT22;29578;51.946;5.874;2022-08-11T10:27:22;30.50;46.50
43920;DHT22;29578;51.946;5.874;2022-08-11T10:29:49;30.60;46.60
43920;DHT22;29578;51.946;5.874;2022-08-11T10:32:32;30.60;46.40
43920;DHT22;29578;51.946;5.874;2022-08-11T10:35:14;30.60;46.20
43920;DHT22;29578;51.946;5.874;2022-08-11T10:37:42;30.70;46.00
43920;DHT22;29578;51.946;5.874;2022-08-11T10:40:13;30.70;45.80
43920;DHT22;29578;51.946;5.874;2022-08-11T10:42:40;30.70;45.70
43920;DHT22;29578;51.946;5.874;2022-08-11T10:45:23;30.60;45.70
43920;DHT22;29578;51.946;5.874;2022-08-11T10:48:04;30.60;45.60
43920;DHT22;29578;51.946;5.874;2022-08-11T10:50:31;30.70;45.50
43920;DHT22;29578;51.946;5.874;2022-08-11T10:53:13;30.70;45.40
43920;DHT22;29578;51.946;5.874;2022-08-11T10:55:53;30.60;45.10
43920;DHT22;29578;51.946;5.874;2022-08-11T10:58:36;30.70;45.10
43920;DHT22;29578;51.946;5.874;2022-08-11T11:03:57;30.70;45.00
43920;DHT22;29578;51.946;5.874;2022-08-11T11:06:34;30.80;44.90
43920;DHT22;29578;51.946;5.874;2022-08-11T11:09:07;30.80;44.70
43920;DHT22;29578;51.946;5.874;2022-08-11T11:11:38;30.90;44.60
43920;DHT22;29578;51.946;5.874;2022-08-11T11:14:21;30.90;44.50
43920;DHT22;29578;51.946;5.874;2022-08-11T11:17:00;31.00;44.40
43920;DHT22;29578;51.946;5.874;2022-08-11T11:19:50;31.00;44.90
43920;DHT22;29578;51.946;5.874;2022-08-11T11:22:20;31.10;44.30
43920;DHT22;29578;51.946;5.874;2022-08-11T11:25:27;31.10;44.10
43920;DHT22;29578;51.946;5.874;2022-08-11T11:28:11;31.10;43.90
43920;DHT22;29578;51.946;5.874;2022-08-11T11:36:46;31.40;43.60
43920;DHT22;29578;51.946;5.874;2022-08-11T11:39:16;31.40;43.40
43920;DHT22;29578;51.946;5.874;2022-08-11T11:41:43;31.50;43.30
43920;DHT22;29578;51.946;5.874;2022-08-11T11:44:12;31.50;43.10
43920;DHT22;29578;51.946;5.874;2022-08-11T11:46:38;31.60;43.10
43920;DHT22;29578;51.946;5.874;2022-08-11T11:49:05;31.60;42.90
43920;DHT22;29578;51.946;5.874;2022-08-11T11:51:35;31.70;42.90
43920;DHT22;29578;51.946;5.874;2022-08-11T11:54:01;31.70;42.70
43920;DHT22;29578;51.946;5.874;2022-08-11T11:56:30;31.70;42.60
43920;DHT22;29578;51.946;5.874;2022-08-11T11:58:56;31.70;42.60
43920;DHT22;29578;51.946;5.874;2022-08-11T12:01:42;31.80;42.60
43920;DHT22;29578;51.946;5.874;2022-08-11T12:04:11;31.80;42.60
43920;DHT22;29578;51.946;5.874;2022-08-11T12:06:38;31.80;42.50
43920;DHT22;29578;51.946;5.874;2022-08-11T12:09:05;31.80;42.50
43920;DHT22;29578;51.946;5.874;2022-08-11T12:11:31;31.70;42.40
43920;DHT22;29578;51.946;5.874;2022-08-11T12:14:16;31.70;42.40
43920;DHT22;29578;51.946;5.874;2022-08-11T12:16:44;31.60;42.30
43920;DHT22;29578;51.946;5.874;2022-08-11T12:19:13;31.60;42.20
43920;DHT22;29578;51.946;5.874;2022-08-11T12:21:41;31.50;42.20
43920;DHT22;29578;51.946;5.874;2022-08-11T12:24:23;31.50;42.20
43920;DHT22;29578;51.946;5.874;2022-08-11T12:27:03;31.60;42.10
43920;DHT22;29578;51.946;5.874;2022-08-11T12:29:53;31.60;41.90
43920;DHT22;29578;51.946;5.874;2022-08-11T12:32:21;31.60;41.80
43920;DHT22;29578;51.946;5.874;2022-08-11T12:34:48;31.60;41.80
43920;DHT22;29578;51.946;5.874;2022-08-11T12:37:17;31.60;41.80
43920;DHT22;29578;51.946;5.874;2022-08-11T12:39:46;31.60;41.50
43920;DHT22;29578;51.946;5.874;2022-08-11T12:42:24;31.60;41.60
43920;DHT22;29578;51.946;5.874;2022-08-11T12:45:08;31.60;41.60
43920;DHT22;29578;51.946;5.874;2022-08-11T12:48:15;31.60;41.60
43920;DHT22;29578;51.946;5.874;2022-08-11T12:51:00;31.60;41.70
43920;DHT22;29578;51.946;5.874;2022-08-11T12:53:53;31.60;41.60
43920;DHT22;29578;51.946;5.874;2022-08-11T12:56:20;31.60;41.30
43920;DHT22;29578;51.946;5.874;2022-08-11T12:59:07;31.50;41.30
43920;DHT22;29578;51.946;5.874;2022-08-11T13:01:45;31.40;41.50
43920;DHT22;29578;51.946;5.874;2022-08-11T13:04:26;31.40;41.50
43920;DHT22;29578;51.946;5.874;2022-08-11T13:07:06;31.30;41.40
43920;DHT22;29578;51.946;5.874;2022-08-11T13:09:31;31.30;41.30
43920;DHT22;29578;51.946;5.874;2022-08-11T13:11:57;31.30;41.20
43920;DHT22;29578;51.946;5.874;2022-08-11T13:14:36;31.30;41.10
43920;DHT22;29578;51.946;5.874;2022-08-11T13:17:02;31.30;41.10
43920;DHT22;29578;51.946;5.874;2022-08-11T13:19:47;31.30;41.10
43920;DHT22;29578;51.946;5.874;2022-08-11T13:22:17;31.20;41.00
43920;DHT22;29578;51.946;5.874;2022-08-11T13:24:44;31.30;41.00
43920;DHT22;29578;51.946;5.874;2022-08-11T13:27:10;31.20;40.90
43920;DHT22;29578;51.946;5.874;2022-08-11T13:29:37;31.10;40.80
43920;DHT22;29578;51.946;5.874;2022-08-11T13:32:06;31.10;40.80
43920;DHT22;29578;51.946;5.874;2022-08-11T13:34:32;31.10;40.80
43920;DHT22;29578;51.946;5.874;2022-08-11T13:37:00;31.00;40.70
43920;DHT22;29578;51.946;5.874;2022-08-11T13:39:29;30.90;40.60
43920;DHT22;29578;51.946;5.874;2022-08-11T13:41:57;31.00;40.60
43920;DHT22;29578;51.946;5.874;2022-08-11T13:44:25;31.00;40.60
43920;DHT22;29578;51.946;5.874;2022-08-11T13:46:56;31.00;40.50
43920;DHT22;29578;51.946;5.874;2022-08-11T13:49:23;31.00;40.40
43920;DHT22;29578;51.946;5.874;2022-08-11T13:51:49;31.00;40.40
43920;DHT22;29578;51.946;5.874;2022-08-11T13:54:17;31.10;40.40
43920;DHT22;29578;51.946;5.874;2022-08-11T13:56:46;31.10;40.30
43920;DHT22;29578;51.946;5.874;2022-08-11T13:59:13;31.10;40.30
43920;DHT22;29578;51.946;5.874;2022-08-11T14:01:52;31.00;40.20
43920;DHT22;29578;51.946;5.874;2022-08-11T14:04:25;31.00;40.20
43920;DHT22;29578;51.946;5.874;2022-08-11T14:06:53;31.00;40.20
43920;DHT22;29578;51.946;5.874;2022-08-11T14:09:25;30.90;40.00
43920;DHT22;29578;51.946;5.874;2022-08-11T14:11:55;30.80;40.00
43920;DHT22;29578;51.946;5.874;2022-08-11T14:14:41;30.80;40.00
43920;DHT22;29578;51.946;5.874;2022-08-11T14:17:08;30.90;39.90
43920;DHT22;29578;51.946;5.874;2022-08-11T14:19:38;30.90;39.80
43920;DHT22;29578;51.946;5.874;2022-08-11T14:22:05;31.00;39.80
43920;DHT22;29578;51.946;5.874;2022-08-11T14:24:33;30.90;39.70
43920;DHT22;29578;51.946;5.874;2022-08-11T14:27:00;31.00;39.70
43920;DHT22;29578;51.946;5.874;2022-08-11T14:29:27;30.90;39.50
43920;DHT22;29578;51.946;5.874;2022-08-11T14:31:55;31.00;39.40
43920;DHT22;29578;51.946;5.874;2022-08-11T14:34:25;31.00;39.30
43920;DHT22;29578;51.946;5.874;2022-08-11T14:36:55;31.00;39.20
43920;DHT22;29578;51.946;5.874;2022-08-11T14:39:25;30.90;39.10
43920;DHT22;29578;51.946;5.874;2022-08-11T14:41:54;30.90;39.10
43920;DHT22;29578;51.946;5.874;2022-08-11T14:44:34;30.90;39.70
43920;DHT22;29578;51.946;5.874;2022-08-11T14:47:13;30.90;39.10
43920;DHT22;29578;51.946;5.874;2022-08-11T14:49:41;30.90;39.00
43920;DHT22;29578;51.946;5.874;2022-08-11T14:52:11;30.90;38.90
43920;DHT22;29578;51.946;5.874;2022-08-11T14:54:43;30.90;38.90
43920;DHT22;29578;51.946;5.874;2022-08-11T14:57:24;30.90;38.90
43920;DHT22;29578;51.946;5.874;2022-08-11T14:59:54;30.90;38.90
43920;DHT22;29578;51.946;5.874;2022-08-11T15:02:22;30.90;38.80
43920;DHT22;29578;51.946;5.874;2022-08-11T15:05:05;30.90;38.90
43920;DHT22;29578;51.946;5.874;2022-08-11T15:07:32;30.90;38.80
43920;DHT22;29578;51.946;5.874;2022-08-11T15:10:03;30.90;38.80
43920;DHT22;29578;51.946;5.874;2022-08-11T15:12:30;30.90;38.70
43920;DHT22;29578;51.946;5.874;2022-08-11T15:14:57;30.90;38.70
43920;DHT22;29578;51.946;5.874;2022-08-11T15:17:39;30.80;38.60
43920;DHT22;29578;51.946;5.874;2022-08-11T15:20:08;30.90;38.70
43920;DHT22;29578;51.946;5.874;2022-08-11T15:22:48;30.80;38.40
43920;DHT22;29578;51.946;5.874;2022-08-11T15:25:28;30.90;38.40
43920;DHT22;29578;51.946;5.874;2022-08-11T15:27:55;30.90;38.40
43920;DHT22;29578;51.946;5.874;2022-08-11T15:30:39;30.90;38.30
43920;DHT22;29578;51.946;5.874;2022-08-11T15:33:18;30.90;38.30
43920;DHT22;29578;51.946;5.874;2022-08-11T15:35:58;30.90;38.40
43920;DHT22;29578;51.946;5.874;2022-08-11T15:38:40;30.90;38.50
43920;DHT22;29578;51.946;5.874;2022-08-11T15:41:07;30.90;38.50
43920;DHT22;29578;51.946;5.874;2022-08-11T15:43:52;30.90;38.50
43920;DHT22;29578;51.946;5.874;2022-08-11T15:46:30;30.90;38.40
43920;DHT22;29578;51.946;5.874;2022-08-11T15:49:02;30.80;38.30
43920;DHT22;29578;51.946;5.874;2022-08-11T15:51:35;30.90;38.30
43920;DHT22;29578;51.946;5.874;2022-08-11T15:54:06;30.90;38.20
43920;DHT22;29578;51.946;5.874;2022-08-11T15:56:36;30.90;38.20
43920;DHT22;29578;51.946;5.874;2022-08-11T15:59:04;30.90;38.10
43920;DHT22;29578;51.946;5.874;2022-08-11T16:01:52;30.90;38.00
43920;DHT22;29578;51.946;5.874;2022-08-11T16:04:30;30.90;37.90
43920;DHT22;29578;51.946;5.874;2022-08-11T16:07:04;30.90;38.00
43920;DHT22;29578;51.946;5.874;2022-08-11T16:09:35;30.90;38.00
43920;DHT22;29578;51.946;5.874;2022-08-11T16:12:05;30.90;37.90
43920;DHT22;29578;51.946;5.874;2022-08-11T16:14:35;30.90;37.80
43920;DHT22;29578;51.946;5.874;2022-08-11T16:17:24;30.90;37.70
43920;DHT22;29578;51.946;5.874;2022-08-11T16:19:52;30.90;37.70
43920;DHT22;29578;51.946;5.874;2022-08-11T16:22:24;30.90;37.70
43920;DHT22;29578;51.946;5.874;2022-08-11T16:24:53;30.90;37.70
43920;DHT22;29578;51.946;5.874;2022-08-11T16:27:20;30.90;37.70
43920;DHT22;29578;51.946;5.874;2022-08-11T16:29:49;30.80;37.60
43920;DHT22;29578;51.946;5.874;2022-08-11T16:32:19;30.90;37.70
43920;DHT22;29578;51.946;5.874;2022-08-11T16:34:52;30.80;37.60
43920;DHT22;29578;51.946;5.874;2022-08-11T16:37:33;30.80;37.60
43920;DHT22;29578;51.946;5.874;2022-08-11T16:40:12;30.80;37.60
43920;DHT22;29578;51.946;5.874;2022-08-11T16:42:40;30.80;37.60
43920;DHT22;29578;51.946;5.874;2022-08-11T16:45:23;30.80;37.70
43920;DHT22;29578;51.946;5.874;2022-08-11T16:48:03;30.80;37.70
43920;DHT22;29578;51.946;5.874;2022-08-11T16:50:30;30.80;37.80
43920;DHT22;29578;51.946;5.874;2022-08-11T16:52:56;30.80;37.90
43920;DHT22;29578;51.946;5.874;2022-08-11T16:55:22;30.70;37.80
43920;DHT22;29578;51.946;5.874;2022-08-11T16:57:48;30.70;37.80
43920;DHT22;29578;51.946;5.874;2022-08-11T17:00:34;30.70;38.40
43920;DHT22;29578;51.946;5.874;2022-08-11T17:03:02;30.70;37.70
43920;DHT22;29578;51.946;5.874;2022-08-11T17:05:50;30.70;37.80
43920;DHT22;29578;51.946;5.874;2022-08-11T17:08:35;30.60;37.80
43920;DHT22;29578;51.946;5.874;2022-08-11T17:11:14;30.70;37.80
43920;DHT22;29578;51.946;5.874;2022-08-11T17:13:55;30.70;37.80
43920;DHT22;29578;51.946;5.874;2022-08-11T17:16:28;30.70;37.90
43920;DHT22;29578;51.946;5.874;2022-08-11T17:19:05;30.60;37.90
43920;DHT22;29578;51.946;5.874;2022-08-11T17:21:37;30.50;37.90
43920;DHT22;29578;51.946;5.874;2022-08-11T17:24:25;30.50;38.00
43920;DHT22;29578;51.946;5.874;2022-08-11T17:26:53;30.40;38.00
43920;DHT22;29578;51.946;5.874;2022-08-11T17:29:29;30.40;38.10
43920;DHT22;29578;51.946;5.874;2022-08-11T17:31:58;30.40;37.90
43920;DHT22;29578;51.946;5.874;2022-08-11T17:34:36;30.50;37.80
43920;DHT22;29578;51.946;5.874;2022-08-11T17:37:15;30.50;37.70
43920;DHT22;29578;51.946;5.874;2022-08-11T17:39:42;30.40;37.80
43920;DHT22;29578;51.946;5.874;2022-08-11T17:42:09;30.40;37.90
43920;DHT22;29578;51.946;5.874;2022-08-11T17:44:47;30.30;37.80
43920;DHT22;29578;51.946;5.874;2022-08-11T17:47:26;30.20;37.80
43920;DHT22;29578;51.946;5.874;2022-08-11T17:50:07;30.20;37.90
43920;DHT22;29578;51.946;5.874;2022-08-11T17:52:34;30.20;38.00
43920;DHT22;29578;51.946;5.874;2022-08-11T17:55:17;30.20;38.00
43920;DHT22;29578;51.946;5.874;2022-08-11T17:57:56;30.10;38.00
43920;DHT22;29578;51.946;5.874;2022-08-11T18:00:37;30.00;38.00
43920;DHT22;29578;51.946;5.874;2022-08-11T18:03:04;30.00;38.10
43920;DHT22;29578;51.946;5.874;2022-08-11T18:05:47;29.90;38.00
43920;DHT22;29578;51.946;5.874;2022-08-11T18:08:15;29.90;38.00
43920;DHT22;29578;51.946;5.874;2022-08-11T18:10:59;29.90;38.00
43920;DHT22;29578;51.946;5.874;2022-08-11T18:13:37;29.80;37.90
43920;DHT22;29578;51.946;5.874;2022-08-11T18:16:19;29.80;37.90
43920;DHT22;29578;51.946;5.874;2022-08-11T18:18:58;29.70;38.00
43920;DHT22;29578;51.946;5.874;2022-08-11T18:21:41;29.60;38.00
43920;DHT22;29578;51.946;5.874;2022-08-11T18:24:18;29.60;38.00
43920;DHT22;29578;51.946;5.874;2022-08-11T18:27:01;29.60;38.10
43920;DHT22;29578;51.946;5.874;2022-08-11T18:29:39;29.50;38.20
43920;DHT22;29578;51.946;5.874;2022-08-11T18:32:23;29.40;38.20
43920;DHT22;29578;51.946;5.874;2022-08-11T18:35:03;29.40;38.40